createdAt,value
2022-10-09T00:04:22.079Z,17.6
2022-10-09T00:09:58.750Z,17.5
2022-10-09T00:15:36.880Z,17.6
2022-10-09T00:21:13.674Z,17.5
2022-10-09T00:26:50.653Z,17.5
2022-10-09T00:32:16.731Z,17.5
2022-10-09T00:37:53.910Z,17.5
2022-10-09T00:43:14.565Z,17.5
2022-10-09T00:48:53.224Z,17.5
2022-10-09T00:54:31.330Z,17.5
2022-10-09T01:00:08.486Z,17.5
2022-10-09T01:05:46.684Z,17.5
2022-10-09T01:11:23.476Z,17.5
2022-10-09T01:17:00.852Z,17.5
2022-10-09T01:22:38.841Z,17.5
2022-10-09T01:28:00.120Z,17.5
2022-10-09T01:33:36.530Z,17.4
2022-10-09T01:38:59.115Z,17.4
2022-10-09T01:44:36.380Z,17.4
2022-10-09T01:49:58.001Z,17.4
2022-10-09T01:55:20.992Z,17.4
2022-10-09T02:00:57.876Z,17.4
2022-10-09T02:06:19.243Z,17.4
2022-10-09T02:11:56.815Z,17.4
2022-10-09T02:17:20.171Z,17.4
2022-10-09T02:23:01.113Z,17.4
2022-10-09T02:28:42.641Z,17.4
2022-10-09T02:34:21.787Z,17.4
2022-10-09T02:39:57.086Z,17.4
2022-10-09T02:45:34.594Z,17.4
2022-10-09T02:51:11.176Z,17.4
2022-10-09T02:56:34.558Z,17.4
2022-10-09T03:02:14.442Z,17.4
2022-10-09T03:07:36.638Z,17.4
2022-10-09T03:12:57.312Z,17.4
2022-10-09T03:18:04.298Z,17.4
2022-10-09T03:23:25.916Z,17.4
2022-10-09T03:28:47.083Z,17.4
2022-10-09T03:34:23.222Z,17.4
2022-10-09T03:39:45.084Z,17.4
2022-10-09T03:44:34.947Z,17.3
2022-10-09T03:49:41.927Z,17.4
2022-10-09T03:55:03.356Z,17.3
2022-10-09T04:00:09.614Z,17.3
2022-10-09T04:05:32.488Z,17.3
2022-10-09T04:10:53.950Z,17.3
2022-10-09T04:16:14.443Z,17.3
2022-10-09T04:21:36.967Z,17.3
2022-10-09T04:26:43.569Z,17.3
2022-10-09T04:32:05.711Z,17.3
2022-10-09T04:37:12.260Z,17.3
2022-10-09T04:42:33.861Z,17.3
2022-10-09T04:47:58.430Z,17.3
2022-10-09T04:53:20.970Z,17.3
2022-10-09T04:58:46.931Z,17.3
2022-10-09T05:04:25.677Z,17.3
2022-10-09T05:10:03.478Z,17.3
2022-10-09T05:15:40.119Z,17.3
2022-10-09T05:21:49.186Z,17.3
2022-10-09T05:27:14.689Z,17.3
2022-10-09T05:32:56.251Z,17.3
2022-10-09T05:38:34.034Z,17.3
2022-10-09T05:44:12.567Z,17.3
2022-10-09T05:49:50.138Z,17.2
2022-10-09T05:55:27.421Z,17.2
2022-10-09T06:01:08.998Z,17.2
2022-10-09T06:06:46.823Z,17.2
2022-10-09T06:12:29.453Z,17.2
2022-10-09T06:18:08.085Z,17.1
2022-10-09T06:23:49.111Z,17.2
2022-10-09T06:29:31.764Z,17.2
2022-10-09T06:35:10.367Z,17.2
2022-10-09T06:40:53.174Z,17.2
2022-10-09T06:46:30.519Z,17.1
2022-10-09T06:52:08.801Z,17.1
2022-10-09T06:57:46.454Z,17.1
2022-10-09T07:03:25.097Z,17.1
2022-10-09T07:09:02.914Z,17.1
2022-10-09T07:14:40.531Z,17.1
2022-10-09T07:20:18.247Z,17.1
2022-10-09T07:25:59.948Z,17.1
2022-10-09T07:31:38.542Z,17.1
2022-10-09T07:37:16.255Z,17.1
2022-10-09T07:42:53.950Z,17.1
2022-10-09T07:48:31.884Z,17.1
2022-10-09T07:54:09.278Z,17.1
2022-10-09T07:59:32.008Z,17.1
2022-10-09T08:05:13.361Z,17.1
2022-10-09T08:10:54.704Z,17.1
2022-10-09T08:16:33.850Z,17.1
2022-10-09T08:22:11.262Z,17.2
2022-10-09T08:27:48.290Z,17.1
2022-10-09T08:33:30.885Z,17.2
2022-10-09T08:39:35.279Z,17.2
2022-10-09T08:44:56.954Z,17.2
2022-10-09T08:50:19.521Z,17.2
2022-10-09T08:55:41.522Z,17.2
2022-10-09T09:01:18.719Z,17.2
2022-10-09T09:06:57.958Z,17.3
2022-10-09T09:12:20.667Z,17.3
2022-10-09T09:17:57.530Z,17.3
2022-10-09T09:23:20.731Z,17.3
2022-10-09T09:28:45.766Z,17.3
2022-10-09T09:34:11.043Z,17.3
2022-10-09T09:40:53.159Z,17.3
2022-10-09T09:46:14.977Z,17.3
2022-10-09T09:52:17.808Z,17.3
2022-10-09T09:58:04.836Z,17.3
2022-10-09T10:02:57.158Z,17.3
2022-10-09T10:08:20.534Z,17.3
2022-10-09T10:13:46.676Z,17.4
2022-10-09T10:19:14.322Z,17.3
2022-10-09T10:24:36.363Z,17.3
2022-10-09T10:30:02.622Z,17.4
2022-10-09T10:35:24.521Z,17.4
2022-10-09T10:41:02.265Z,17.4
2022-10-09T10:46:24.566Z,17.4
2022-10-09T10:51:48.752Z,17.4
2022-10-09T10:57:28.536Z,17.4
2022-10-09T11:02:57.535Z,17.4
2022-10-09T11:08:19.733Z,17.4
2022-10-09T11:14:01.326Z,17.4
2022-10-09T11:19:26.506Z,17.4
2022-10-09T11:24:36.259Z,17.4
2022-10-09T11:29:58.336Z,17.5
2022-10-09T11:35:36.811Z,17.5
2022-10-09T11:41:01.512Z,17.5
2022-10-09T11:46:13.752Z,17.5
2022-10-09T11:51:38.098Z,17.5
2022-10-09T11:56:59.983Z,17.5
2022-10-09T12:02:21.418Z,17.6
2022-10-09T12:07:59.985Z,17.6
2022-10-09T12:13:25.213Z,17.6
2022-10-09T12:19:03.322Z,17.6
2022-10-09T12:25:09.167Z,17.6
2022-10-09T12:30:30.938Z,17.6
2022-10-09T12:36:09.014Z,17.6
2022-10-09T12:41:52.407Z,17.6
2022-10-09T12:47:30.598Z,17.6
2022-10-09T12:53:08.743Z,17.7
2022-10-09T12:58:48.552Z,17.7
2022-10-09T13:04:27.341Z,17.7
2022-10-09T13:10:04.710Z,17.7
2022-10-09T13:15:42.132Z,17.7
2022-10-09T13:21:20.219Z,17.7
2022-10-09T13:27:01.736Z,17.8
2022-10-09T13:32:40.159Z,17.8
2022-10-09T13:38:17.500Z,17.8
2022-10-09T13:43:56.407Z,17.8
2022-10-09T13:49:37.953Z,17.8
2022-10-09T13:55:16.527Z,17.8
2022-10-09T14:00:55.499Z,17.8
2022-10-09T14:06:33.646Z,17.8
2022-10-09T14:12:11.784Z,17.8
2022-10-09T14:17:48.910Z,17.8
2022-10-09T14:23:29.610Z,17.9
2022-10-09T14:29:07.883Z,17.9
2022-10-09T14:34:45.437Z,17.9
2022-10-09T14:40:45.555Z,17.9
2022-10-09T14:46:23.843Z,17.9
2022-10-09T14:51:45.116Z,17.9
2022-10-09T14:57:22.264Z,17.9
2022-10-09T15:03:00.159Z,17.9
2022-10-09T15:08:38.463Z,17.9
2022-10-09T15:14:16.207Z,17.9
2022-10-09T15:19:58.366Z,17.9
2022-10-09T15:25:35.877Z,17.9
2022-10-09T15:31:15.311Z,17.9
2022-10-09T15:36:54.486Z,17.9
2022-10-09T15:42:36.000Z,17.9
2022-10-09T15:48:40.564Z,17.9
2022-10-09T15:54:03.521Z,17.9
2022-10-09T15:59:43.763Z,17.9
2022-10-09T16:05:22.687Z,17.9
2022-10-09T16:11:04.855Z,17.9
2022-10-09T16:16:46.840Z,17.9
2022-10-09T16:22:12.364Z,17.9
2022-10-09T16:27:51.773Z,17.9
2022-10-09T16:33:13.550Z,17.9
2022-10-09T16:38:36.098Z,17.9
2022-10-09T16:44:44.328Z,17.9
2022-10-09T16:50:11.516Z,18
2022-10-09T16:55:33.929Z,17.9
2022-10-09T17:00:56.942Z,18
2022-10-09T17:06:34.465Z,18
2022-10-09T17:12:17.233Z,18
2022-10-09T17:17:41.536Z,17.9
2022-10-09T17:23:19.499Z,18
2022-10-09T17:28:42.359Z,18
2022-10-09T17:34:26.488Z,18
2022-10-09T17:40:08.758Z,18
2022-10-09T17:45:33.768Z,18
2022-10-09T17:50:42.711Z,18
2022-10-09T17:56:08.842Z,18
2022-10-09T18:01:31.953Z,18
2022-10-09T18:07:09.882Z,18
2022-10-09T18:12:16.406Z,18
2022-10-09T18:17:43.634Z,18
2022-10-09T18:23:05.857Z,18
2022-10-09T18:28:46.021Z,18
2022-10-09T18:34:11.436Z,18
2022-10-09T18:39:51.391Z,18
2022-10-09T18:45:28.751Z,18
2022-10-09T18:51:07.169Z,18
2022-10-09T18:56:48.254Z,18
2022-10-09T19:02:30.469Z,18
2022-10-09T19:08:11.982Z,18
2022-10-09T19:13:50.670Z,18
2022-10-09T19:19:28.599Z,18
2022-10-09T19:25:10.677Z,18
2022-10-09T19:30:48.338Z,18
2022-10-09T19:36:28.383Z,18
2022-10-09T19:42:11.144Z,18
2022-10-09T19:47:33.223Z,18
2022-10-09T19:53:14.324Z,18
2022-10-09T19:58:36.070Z,18
2022-10-09T20:04:13.699Z,18
2022-10-09T20:09:39.333Z,18
2022-10-09T20:15:19.918Z,18
2022-10-09T20:20:42.332Z,18
2022-10-09T20:26:03.838Z,18
2022-10-09T20:31:46.872Z,18
2022-10-09T20:37:10.470Z,17.9
2022-10-09T20:42:52.189Z,18
2022-10-09T20:48:14.456Z,17.9
2022-10-09T20:53:51.814Z,17.9
2022-10-09T20:59:18.406Z,17.9
2022-10-09T21:04:25.442Z,17.9
2022-10-09T21:09:50.009Z,18
2022-10-09T21:15:27.326Z,17.9
2022-10-09T21:20:49.487Z,17.9
2022-10-09T21:26:32.575Z,17.9
2022-10-09T21:32:00.291Z,17.9
2022-10-09T21:37:59.399Z,17.9
2022-10-09T21:43:37.199Z,17.9
2022-10-09T21:49:13.918Z,17.9
2022-10-09T21:54:51.322Z,17.9
2022-10-09T22:00:15.212Z,17.9
2022-10-09T22:05:52.544Z,17.9
2022-10-09T22:11:31.567Z,17.9
2022-10-09T22:16:58.117Z,17.9
2022-10-09T22:22:34.819Z,17.9
2022-10-09T22:28:13.285Z,17.9
2022-10-09T22:33:51.534Z,17.9
2022-10-09T22:39:27.451Z,17.9
2022-10-09T22:45:04.989Z,17.9
2022-10-09T22:50:26.377Z,17.9
2022-10-09T22:55:47.596Z,17.9
2022-10-09T23:01:24.775Z,17.9
2022-10-09T23:07:02.317Z,17.9
2022-10-09T23:12:23.850Z,17.9
2022-10-09T23:17:46.369Z,17.9
2022-10-09T23:23:09.638Z,17.9
2022-10-09T23:28:46.482Z,17.9
2022-10-09T23:34:24.229Z,17.9
2022-10-09T23:40:00.850Z,17.9
2022-10-09T23:45:27.705Z,17.9
2022-10-09T23:51:05.080Z,17.9
2022-10-09T23:56:27.575Z,17.9
